N60SB KLAS-KASE
Flight info
| Callsign | N60SB |
|---|---|
| Flight time | 1h 18m |
| Altitude | 45000 |
| Route | GIDGT3 TUKRR SLIPY LOYYD1 |
| Aircraft | C750/M-SBDE3FGHRWXY/S |
Departure
| Time | 2026-03-24 16:05 |
|---|---|
| Airport | Harry Reid International Airport (KLAS) |
Arrival
| Time | 2026-03-24 17:23 |
|---|---|
| Airport | Aspen-Pitkin County Airport (Sardy Field) (KASE) |
| Time | Latitude | Longitude | Altitude | Speed | Heading |
|---|---|---|---|---|---|
| 2026-03-24 15:14 | 36.08119 | -115.17107 | 2169 ft | 0 kts | 90° |
| 2026-03-24 15:51 | 36.08119 | -115.17105 | 2169 ft | 2 kts | 90° |
| 2026-03-24 15:51 | 36.08123 | -115.17090 | 2164 ft | 3 kts | 50° |
| 2026-03-24 15:52 | 36.08145 | -115.17084 | 2168 ft | 2 kts | 32° |
| 2026-03-24 15:52 | 36.08148 | -115.17072 | 2169 ft | 0 kts | 78° |
| 2026-03-24 15:53 | 36.08150 | -115.17045 | 2165 ft | 6 kts | 85° |
| 2026-03-24 15:53 | 36.08152 | -115.16976 | 2166 ft | 7 kts | 89° |
| 2026-03-24 15:54 | 36.08178 | -115.16916 | 2163 ft | 9 kts | 36° |
| 2026-03-24 15:54 | 36.08237 | -115.16876 | 2161 ft | 10 kts | 24° |
| 2026-03-24 15:54 | 36.08380 | -115.16794 | 2157 ft | 12 kts | 25° |
| 2026-03-24 15:55 | 36.08462 | -115.16748 | 2154 ft | 13 kts | 25° |
| 2026-03-24 15:55 | 36.08550 | -115.16697 | 2152 ft | 15 kts | 25° |
| 2026-03-24 15:55 | 36.08645 | -115.16643 | 2148 ft | 16 kts | 25° |
| 2026-03-24 15:55 | 36.08747 | -115.16585 | 2145 ft | 17 kts | 24° |
| 2026-03-24 15:56 | 36.08855 | -115.16524 | 2142 ft | 18 kts | 25° |
| 2026-03-24 15:56 | 36.08972 | -115.16454 | 2138 ft | 19 kts | 26° |
| 2026-03-24 15:56 | 36.09095 | -115.16383 | 2133 ft | 20 kts | 27° |
| 2026-03-24 15:56 | 36.09229 | -115.16308 | 2128 ft | 22 kts | 24° |
| 2026-03-24 15:57 | 36.09371 | -115.16227 | 2123 ft | 23 kts | 26° |
| 2026-03-24 15:57 | 36.09512 | -115.16144 | 2118 ft | 23 kts | 25° |
| 2026-03-24 15:57 | 36.09662 | -115.16060 | 2114 ft | 24 kts | 23° |
| 2026-03-24 15:57 | 36.09814 | -115.15973 | 2109 ft | 24 kts | 25° |
| 2026-03-24 15:58 | 36.09931 | -115.15902 | 2106 ft | 16 kts | 32° |
| 2026-03-24 15:58 | 36.09959 | -115.15850 | 2104 ft | 2 kts | 68° |
| 2026-03-24 15:58 | 36.09966 | -115.15830 | 2103 ft | 4 kts | 70° |
| 2026-03-24 15:58 | 36.09973 | -115.15802 | 2102 ft | 0 kts | 71° |
| 2026-03-24 16:00 | 36.09975 | -115.15796 | 2102 ft | 2 kts | 72° |
| 2026-03-24 16:00 | 36.09981 | -115.15766 | 2101 ft | 5 kts | 79° |
| 2026-03-24 16:00 | 36.09982 | -115.15757 | 2100 ft | 0 kts | 82° |
| 2026-03-24 16:02 | 36.09982 | -115.15749 | 2097 ft | 3 kts | 88° |
| 2026-03-24 16:02 | 36.09975 | -115.15710 | 2102 ft | 8 kts | 111° |
| 2026-03-24 16:02 | 36.09929 | -115.15666 | 2097 ft | 9 kts | 187° |
| 2026-03-24 16:03 | 36.09908 | -115.15676 | 2097 ft | 0 kts | 204° |
| 2026-03-24 16:04 | 36.09571 | -115.15870 | 2101 ft | 113 kts | 205° |
| 2026-03-24 16:05 | 36.08645 | -115.16404 | 2216 ft | 166 kts | 205° |
| 2026-03-24 16:05 | 36.07556 | -115.17064 | 2815 ft | 185 kts | 208° |
| 2026-03-24 16:05 | 36.06486 | -115.18170 | 2882 ft | 213 kts | 238° |
| 2026-03-24 16:05 | 36.06244 | -115.19925 | 3356 ft | 219 kts | 282° |
| 2026-03-24 16:06 | 36.06831 | -115.21606 | 4204 ft | 204 kts | 295° |
| 2026-03-24 16:06 | 36.07536 | -115.22940 | 5527 ft | 168 kts | 312° |
| 2026-03-24 16:06 | 36.08557 | -115.23561 | 6177 ft | 179 kts | 352° |
| 2026-03-24 16:06 | 36.09844 | -115.23959 | 6243 ft | 211 kts | 328° |
| 2026-03-24 16:07 | 36.10659 | -115.25444 | 6750 ft | 216 kts | 281° |
| 2026-03-24 16:07 | 36.10911 | -115.27283 | 7437 ft | 225 kts | 293° |
| 2026-03-24 16:07 | 36.11978 | -115.28763 | 8151 ft | 240 kts | 322° |
| 2026-03-24 16:07 | 36.13479 | -115.29761 | 8913 ft | 255 kts | 345° |
| 2026-03-24 16:08 | 36.15252 | -115.29595 | 9658 ft | 263 kts | 23° |
| 2026-03-24 16:08 | 36.16611 | -115.28089 | 10464 ft | 269 kts | 58° |
| 2026-03-24 16:08 | 36.17369 | -115.25973 | 11372 ft | 269 kts | 69° |
| 2026-03-24 16:08 | 36.17958 | -115.23782 | 12297 ft | 269 kts | 70° |
| 2026-03-24 16:09 | 36.18635 | -115.21617 | 13219 ft | 270 kts | 66° |
| 2026-03-24 16:09 | 36.19352 | -115.19466 | 14101 ft | 271 kts | 67° |
| 2026-03-24 16:09 | 36.19647 | -115.17152 | 14853 ft | 275 kts | 89° |
| 2026-03-24 16:09 | 36.19617 | -115.14818 | 15685 ft | 275 kts | 90° |
| 2026-03-24 16:10 | 36.19607 | -115.12449 | 16550 ft | 275 kts | 88° |
| 2026-03-24 16:10 | 36.19615 | -115.10876 | 17134 ft | 276 kts | 88° |
| 2026-03-24 16:10 | 36.19625 | -115.08478 | 17870 ft | 282 kts | 88° |
| 2026-03-24 16:10 | 36.19624 | -115.06019 | 18597 ft | 289 kts | 89° |
| 2026-03-24 16:11 | 36.19622 | -115.03506 | 19276 ft | 295 kts | 89° |
| 2026-03-24 16:11 | 36.19622 | -115.00936 | 19981 ft | 301 kts | 89° |
| 2026-03-24 16:11 | 36.19622 | -114.98317 | 20695 ft | 308 kts | 89° |
| 2026-03-24 16:11 | 36.19621 | -114.95657 | 21522 ft | 310 kts | 90° |
| 2026-03-24 16:12 | 36.19619 | -114.92961 | 22268 ft | 315 kts | 90° |
| 2026-03-24 16:12 | 36.19616 | -114.90227 | 23035 ft | 320 kts | 90° |
| 2026-03-24 16:12 | 36.19613 | -114.87456 | 23769 ft | 324 kts | 91° |
| 2026-03-24 16:12 | 36.19609 | -114.84652 | 24429 ft | 328 kts | 90° |
| 2026-03-24 16:13 | 36.19605 | -114.81816 | 25109 ft | 331 kts | 90° |
| 2026-03-24 16:13 | 36.19600 | -114.78961 | 25801 ft | 333 kts | 90° |
| 2026-03-24 16:13 | 36.19594 | -114.76082 | 26510 ft | 335 kts | 90° |
| 2026-03-24 16:13 | 36.19588 | -114.73192 | 27234 ft | 337 kts | 90° |
| 2026-03-24 16:14 | 36.19580 | -114.70291 | 27981 ft | 337 kts | 89° |
| 2026-03-24 16:14 | 36.19573 | -114.67386 | 28745 ft | 338 kts | 89° |
| 2026-03-24 16:14 | 36.19567 | -114.64481 | 29531 ft | 337 kts | 89° |
| 2026-03-24 16:14 | 36.19562 | -114.61563 | 30166 ft | 341 kts | 89° |
| 2026-03-24 16:15 | 36.19556 | -114.58612 | 30669 ft | 346 kts | 89° |
| 2026-03-24 16:15 | 36.19548 | -114.55609 | 31102 ft | 353 kts | 89° |
| 2026-03-24 16:15 | 36.19539 | -114.52537 | 31512 ft | 361 kts | 89° |
| 2026-03-24 16:15 | 36.19529 | -114.49400 | 31937 ft | 368 kts | 90° |
| 2026-03-24 16:16 | 36.19518 | -114.46196 | 32340 ft | 376 kts | 90° |
| 2026-03-24 16:16 | 36.19506 | -114.42921 | 32708 ft | 385 kts | 90° |
| 2026-03-24 16:16 | 36.19493 | -114.39577 | 33079 ft | 393 kts | 90° |
| 2026-03-24 16:16 | 36.19479 | -114.36164 | 33459 ft | 401 kts | 90° |
| 2026-03-24 16:17 | 36.19463 | -114.32684 | 33840 ft | 408 kts | 90° |
| 2026-03-24 16:17 | 36.19446 | -114.29139 | 34187 ft | 415 kts | 90° |
| 2026-03-24 16:17 | 36.19428 | -114.25531 | 34526 ft | 422 kts | 90° |
| 2026-03-24 16:17 | 36.19621 | -114.21888 | 34844 ft | 428 kts | 83° |
| 2026-03-24 16:18 | 36.20080 | -114.18219 | 35189 ft | 434 kts | 80° |
| 2026-03-24 16:18 | 36.20594 | -114.14518 | 35541 ft | 439 kts | 81° |
| 2026-03-24 16:18 | 36.21044 | -114.10752 | 35912 ft | 444 kts | 82° |
| 2026-03-24 16:18 | 36.21456 | -114.06940 | 36268 ft | 449 kts | 82° |
| 2026-03-24 16:19 | 36.21907 | -114.03094 | 36630 ft | 454 kts | 82° |
| 2026-03-24 16:19 | 36.22392 | -113.99213 | 37011 ft | 458 kts | 82° |
| 2026-03-24 16:19 | 36.22857 | -113.95346 | 37377 ft | 462 kts | 82° |
| 2026-03-24 16:19 | 36.23314 | -113.91350 | 37759 ft | 463 kts | 82° |
| 2026-03-24 16:20 | 36.23770 | -113.87412 | 38234 ft | 462 kts | 82° |
| 2026-03-24 16:20 | 36.24231 | -113.83533 | 38679 ft | 461 kts | 82° |
| 2026-03-24 16:20 | 36.24696 | -113.79601 | 39015 ft | 462 kts | 82° |
| 2026-03-24 16:20 | 36.25152 | -113.75657 | 39357 ft | 462 kts | 82° |
| 2026-03-24 16:21 | 36.25606 | -113.71714 | 39719 ft | 464 kts | 82° |
| 2026-03-24 16:21 | 36.26066 | -113.67751 | 40070 ft | 465 kts | 82° |
| 2026-03-24 16:21 | 36.26527 | -113.63783 | 40428 ft | 465 kts | 82° |
| 2026-03-24 16:21 | 36.26984 | -113.59813 | 40815 ft | 466 kts | 82° |
| 2026-03-24 16:22 | 36.27438 | -113.55840 | 41181 ft | 466 kts | 81° |
| 2026-03-24 16:22 | 36.27893 | -113.51864 | 41565 ft | 466 kts | 81° |
| 2026-03-24 16:22 | 36.28347 | -113.47886 | 41971 ft | 466 kts | 81° |
| 2026-03-24 16:22 | 36.28801 | -113.43900 | 42361 ft | 467 kts | 81° |
| 2026-03-24 16:23 | 36.29253 | -113.39916 | 42758 ft | 467 kts | 81° |
| 2026-03-24 16:23 | 36.29703 | -113.35926 | 43180 ft | 468 kts | 81° |
| 2026-03-24 16:23 | 36.30154 | -113.31932 | 43598 ft | 468 kts | 81° |
| 2026-03-24 16:23 | 36.30602 | -113.27939 | 44014 ft | 468 kts | 80° |
| 2026-03-24 16:24 | 36.31084 | -113.23954 | 44427 ft | 466 kts | 77° |
| 2026-03-24 16:24 | 36.31963 | -113.20106 | 44825 ft | 463 kts | 67° |
| 2026-03-24 16:24 | 36.33241 | -113.16442 | 45117 ft | 463 kts | 62° |
| 2026-03-24 16:25 | 36.36017 | -113.09074 | 45130 ft | 480 kts | 64° |
| 2026-03-24 16:25 | 36.38629 | -113.01307 | 45130 ft | 494 kts | 64° |
| 2026-03-24 16:26 | 36.41473 | -112.93427 | 45144 ft | 504 kts | 64° |
| 2026-03-24 16:26 | 36.44241 | -112.85375 | 45145 ft | 513 kts | 64° |
| 2026-03-24 16:27 | 36.47137 | -112.77166 | 45168 ft | 524 kts | 64° |
| 2026-03-24 16:27 | 36.50027 | -112.68813 | 45161 ft | 525 kts | 64° |
| 2026-03-24 16:28 | 36.52935 | -112.60462 | 45167 ft | 526 kts | 64° |
| 2026-03-24 16:28 | 36.55824 | -112.52105 | 45167 ft | 526 kts | 64° |
| 2026-03-24 16:29 | 36.58712 | -112.43741 | 45169 ft | 527 kts | 64° |
| 2026-03-24 16:29 | 36.61597 | -112.35363 | 45165 ft | 527 kts | 64° |
| 2026-03-24 16:30 | 36.64474 | -112.26979 | 45162 ft | 526 kts | 64° |
| 2026-03-24 16:30 | 36.67353 | -112.18576 | 45141 ft | 529 kts | 64° |
| 2026-03-24 16:31 | 36.70210 | -112.10203 | 45144 ft | 528 kts | 64° |
| 2026-03-24 16:31 | 36.73076 | -112.01787 | 45109 ft | 528 kts | 64° |
| 2026-03-24 16:32 | 36.75935 | -111.93361 | 45109 ft | 528 kts | 64° |
| 2026-03-24 16:32 | 36.78791 | -111.84928 | 45076 ft | 527 kts | 64° |
| 2026-03-24 16:33 | 36.81640 | -111.76486 | 45055 ft | 529 kts | 64° |
| 2026-03-24 16:33 | 36.84489 | -111.68022 | 45050 ft | 528 kts | 64° |
| 2026-03-24 16:34 | 36.87815 | -111.59885 | 45057 ft | 526 kts | 57° |
| 2026-03-24 16:34 | 36.89648 | -111.55924 | 45202 ft | 527 kts | 57° |
| 2026-03-24 16:34 | 36.91444 | -111.51931 | 45202 ft | 527 kts | 58° |
| 2026-03-24 16:35 | 36.94968 | -111.43893 | 45205 ft | 527 kts | 58° |
| 2026-03-24 16:35 | 36.98561 | -111.35899 | 45204 ft | 527 kts | 58° |
| 2026-03-24 16:36 | 37.02100 | -111.27857 | 45157 ft | 527 kts | 58° |
| 2026-03-24 16:36 | 37.05664 | -111.19836 | 45110 ft | 527 kts | 58° |
| 2026-03-24 16:37 | 37.09204 | -111.11790 | 45060 ft | 527 kts | 58° |
| 2026-03-24 16:37 | 37.12740 | -111.03766 | 45023 ft | 526 kts | 58° |
| 2026-03-24 16:38 | 37.16247 | -110.95774 | 45025 ft | 527 kts | 58° |
| 2026-03-24 16:38 | 37.19773 | -110.87724 | 45026 ft | 527 kts | 58° |
| 2026-03-24 16:39 | 37.23297 | -110.79659 | 45035 ft | 527 kts | 58° |
| 2026-03-24 16:39 | 37.26811 | -110.71592 | 45026 ft | 528 kts | 58° |
| 2026-03-24 16:40 | 37.30305 | -110.63555 | 45016 ft | 528 kts | 58° |
| 2026-03-24 16:40 | 37.33816 | -110.55456 | 45027 ft | 528 kts | 58° |
| 2026-03-24 16:41 | 37.37325 | -110.47344 | 45028 ft | 528 kts | 58° |
| 2026-03-24 16:41 | 37.40826 | -110.39229 | 45041 ft | 528 kts | 58° |
| 2026-03-24 16:42 | 37.44320 | -110.31110 | 45046 ft | 527 kts | 58° |
| 2026-03-24 16:42 | 37.47811 | -110.22978 | 45052 ft | 528 kts | 58° |
| 2026-03-24 16:43 | 37.53040 | -110.10758 | 45059 ft | 528 kts | 58° |
| 2026-03-24 16:43 | 37.56512 | -110.02617 | 45077 ft | 527 kts | 58° |
| 2026-03-24 16:44 | 37.59983 | -109.94460 | 45069 ft | 528 kts | 58° |
| 2026-03-24 16:44 | 37.63447 | -109.86296 | 45082 ft | 528 kts | 58° |
| 2026-03-24 16:45 | 37.66912 | -109.78110 | 45102 ft | 529 kts | 58° |
| 2026-03-24 16:45 | 37.70369 | -109.69921 | 45100 ft | 529 kts | 58° |
| 2026-03-24 16:46 | 37.73801 | -109.61773 | 45207 ft | 529 kts | 58° |
| 2026-03-24 16:46 | 37.77246 | -109.53572 | 45197 ft | 528 kts | 58° |
| 2026-03-24 16:47 | 37.81513 | -109.46160 | 45173 ft | 518 kts | 41° |
| 2026-03-24 16:47 | 37.87164 | -109.40745 | 45142 ft | 506 kts | 26° |
| 2026-03-24 16:48 | 37.93309 | -109.36354 | 45111 ft | 508 kts | 27° |
| 2026-03-24 16:48 | 37.99307 | -109.31590 | 45108 ft | 510 kts | 27° |
| 2026-03-24 16:49 | 38.05411 | -109.27046 | 45104 ft | 509 kts | 26° |
| 2026-03-24 16:49 | 38.11443 | -109.22328 | 45103 ft | 510 kts | 28° |
| 2026-03-24 16:50 | 38.17361 | -109.17339 | 45098 ft | 511 kts | 30° |
| 2026-03-24 16:50 | 38.23275 | -109.12326 | 45106 ft | 513 kts | 29° |
| 2026-03-24 16:51 | 38.29197 | -109.07309 | 45104 ft | 510 kts | 29° |
| 2026-03-24 16:52 | 38.38064 | -108.99770 | 45107 ft | 510 kts | 29° |
| 2026-03-24 16:52 | 38.43928 | -108.94765 | 45103 ft | 494 kts | 29° |
| 2026-03-24 16:52 | 38.46740 | -108.92359 | 44835 ft | 480 kts | 29° |
| 2026-03-24 16:53 | 38.49495 | -108.90011 | 44137 ft | 470 kts | 28° |
| 2026-03-24 16:53 | 38.52186 | -108.87715 | 43528 ft | 460 kts | 28° |
| 2026-03-24 16:53 | 38.54814 | -108.85464 | 42935 ft | 450 kts | 28° |
| 2026-03-24 16:53 | 38.57393 | -108.83252 | 42362 ft | 444 kts | 28° |
| 2026-03-24 16:54 | 38.59952 | -108.81062 | 41767 ft | 443 kts | 28° |
| 2026-03-24 16:54 | 38.62519 | -108.78864 | 41189 ft | 447 kts | 28° |
| 2026-03-24 16:54 | 38.65119 | -108.76632 | 40600 ft | 452 kts | 28° |
| 2026-03-24 16:54 | 38.67729 | -108.74382 | 39988 ft | 453 kts | 27° |
| 2026-03-24 16:55 | 38.70311 | -108.72159 | 39403 ft | 454 kts | 27° |
| 2026-03-24 16:55 | 38.72936 | -108.69902 | 38818 ft | 455 kts | 27° |
| 2026-03-24 16:55 | 38.75595 | -108.67587 | 38131 ft | 457 kts | 29° |
| 2026-03-24 16:55 | 38.78035 | -108.64922 | 37524 ft | 466 kts | 38° |
| 2026-03-24 16:56 | 38.80152 | -108.61718 | 36911 ft | 476 kts | 48° |
| 2026-03-24 16:56 | 38.81874 | -108.58063 | 36302 ft | 483 kts | 57° |
| 2026-03-24 16:56 | 38.83182 | -108.54066 | 35676 ft | 488 kts | 64° |
| 2026-03-24 16:56 | 38.83944 | -108.51352 | 35263 ft | 490 kts | 65° |
| 2026-03-24 16:57 | 38.85088 | -108.47238 | 34613 ft | 489 kts | 64° |
| 2026-03-24 16:57 | 38.86299 | -108.43163 | 33955 ft | 488 kts | 63° |
| 2026-03-24 16:57 | 38.87540 | -108.39106 | 33292 ft | 488 kts | 63° |
| 2026-03-24 16:57 | 38.88742 | -108.35018 | 32658 ft | 491 kts | 64° |
| 2026-03-24 16:58 | 38.89917 | -108.30899 | 32027 ft | 491 kts | 64° |
| 2026-03-24 16:58 | 38.91111 | -108.26798 | 31390 ft | 491 kts | 63° |
| 2026-03-24 16:58 | 38.92329 | -108.22701 | 30752 ft | 492 kts | 63° |
| 2026-03-24 16:58 | 38.93532 | -108.18604 | 30087 ft | 487 kts | 64° |
| 2026-03-24 16:59 | 38.94699 | -108.14547 | 29429 ft | 481 kts | 64° |
| 2026-03-24 16:59 | 38.95862 | -108.10531 | 28866 ft | 477 kts | 64° |
| 2026-03-24 16:59 | 38.97026 | -108.06551 | 28385 ft | 475 kts | 64° |
| 2026-03-24 16:59 | 38.98184 | -108.02574 | 27740 ft | 476 kts | 64° |
| 2026-03-24 17:00 | 38.99325 | -107.98611 | 27086 ft | 468 kts | 65° |
| 2026-03-24 17:00 | 39.00447 | -107.94700 | 26592 ft | 466 kts | 64° |
| 2026-03-24 17:00 | 39.01578 | -107.90801 | 26100 ft | 464 kts | 64° |
| 2026-03-24 17:00 | 39.02701 | -107.86921 | 25615 ft | 462 kts | 65° |
| 2026-03-24 17:01 | 39.03811 | -107.83052 | 25129 ft | 460 kts | 65° |
| 2026-03-24 17:01 | 39.04913 | -107.79200 | 24628 ft | 457 kts | 65° |
| 2026-03-24 17:01 | 39.06014 | -107.75367 | 24162 ft | 455 kts | 65° |
| 2026-03-24 17:01 | 39.07108 | -107.71558 | 23685 ft | 453 kts | 65° |
| 2026-03-24 17:02 | 39.08192 | -107.67767 | 23180 ft | 449 kts | 65° |
| 2026-03-24 17:02 | 39.09251 | -107.64049 | 22717 ft | 447 kts | 65° |
| 2026-03-24 17:02 | 39.10320 | -107.60302 | 22248 ft | 445 kts | 65° |
| 2026-03-24 17:02 | 39.11390 | -107.56592 | 21787 ft | 435 kts | 65° |
| 2026-03-24 17:03 | 39.12431 | -107.53063 | 21347 ft | 409 kts | 64° |
| 2026-03-24 17:03 | 39.13416 | -107.49730 | 20931 ft | 388 kts | 64° |
| 2026-03-24 17:03 | 39.14345 | -107.46549 | 20532 ft | 372 kts | 64° |
| 2026-03-24 17:03 | 39.15242 | -107.43467 | 20165 ft | 365 kts | 63° |
| 2026-03-24 17:04 | 39.16021 | -107.40361 | 19759 ft | 367 kts | 75° |
| 2026-03-24 17:04 | 39.16106 | -107.37141 | 19782 ft | 353 kts | 86° |
| 2026-03-24 17:04 | 39.16068 | -107.33948 | 19779 ft | 359 kts | 86° |
| 2026-03-24 17:04 | 39.16025 | -107.30728 | 19788 ft | 361 kts | 87° |
| 2026-03-24 17:05 | 39.15981 | -107.27487 | 19790 ft | 363 kts | 87° |
| 2026-03-24 17:05 | 39.15938 | -107.24231 | 19783 ft | 363 kts | 86° |
| 2026-03-24 17:05 | 39.15893 | -107.20982 | 19780 ft | 362 kts | 86° |
| 2026-03-24 17:05 | 39.15847 | -107.17734 | 19774 ft | 362 kts | 86° |
| 2026-03-24 17:06 | 39.15801 | -107.14500 | 19782 ft | 362 kts | 87° |
| 2026-03-24 17:06 | 39.15755 | -107.11236 | 19742 ft | 370 kts | 87° |
| 2026-03-24 17:06 | 39.15708 | -107.07870 | 19546 ft | 376 kts | 87° |
| 2026-03-24 17:06 | 39.15651 | -107.04498 | 19232 ft | 376 kts | 87° |
| 2026-03-24 17:07 | 39.15598 | -107.01150 | 18928 ft | 371 kts | 86° |
| 2026-03-24 17:07 | 39.15549 | -106.97819 | 18579 ft | 371 kts | 86° |
| 2026-03-24 17:07 | 39.15503 | -106.94527 | 18246 ft | 361 kts | 87° |
| 2026-03-24 17:07 | 39.15445 | -106.91355 | 17921 ft | 347 kts | 86° |
| 2026-03-24 17:08 | 39.15765 | -106.88374 | 17543 ft | 328 kts | 65° |
| 2026-03-24 17:08 | 39.16799 | -106.85844 | 17502 ft | 312 kts | 45° |
| 2026-03-24 17:08 | 39.18167 | -106.83755 | 17284 ft | 299 kts | 41° |
| 2026-03-24 17:08 | 39.19544 | -106.81689 | 17061 ft | 309 kts | 42° |
| 2026-03-24 17:09 | 39.20930 | -106.79568 | 16764 ft | 307 kts | 43° |
| 2026-03-24 17:09 | 39.22266 | -106.77512 | 16504 ft | 292 kts | 42° |
| 2026-03-24 17:09 | 39.23561 | -106.75552 | 16254 ft | 284 kts | 41° |
| 2026-03-24 17:09 | 39.24821 | -106.73651 | 15958 ft | 279 kts | 42° |
| 2026-03-24 17:10 | 39.26062 | -106.71756 | 15723 ft | 274 kts | 42° |
| 2026-03-24 17:10 | 39.27302 | -106.69875 | 15501 ft | 277 kts | 42° |
| 2026-03-24 17:10 | 39.28592 | -106.68032 | 15191 ft | 272 kts | 33° |
| 2026-03-24 17:10 | 39.30183 | -106.66877 | 14939 ft | 257 kts | 11° |
| 2026-03-24 17:11 | 39.31904 | -106.66538 | 14759 ft | 245 kts | 351° |
| 2026-03-24 17:11 | 39.33496 | -106.66935 | 14551 ft | 223 kts | 334° |
| 2026-03-24 17:11 | 39.34910 | -106.67656 | 14366 ft | 216 kts | 333° |
| 2026-03-24 17:11 | 39.36301 | -106.68344 | 14173 ft | 213 kts | 333° |
| 2026-03-24 17:12 | 39.37653 | -106.69087 | 13783 ft | 206 kts | 325° |
| 2026-03-24 17:12 | 39.38666 | -106.70273 | 13661 ft | 196 kts | 309° |
| 2026-03-24 17:12 | 39.39567 | -106.71619 | 13833 ft | 194 kts | 308° |
| 2026-03-24 17:12 | 39.40470 | -106.72980 | 14007 ft | 201 kts | 308° |
| 2026-03-24 17:13 | 39.41395 | -106.74369 | 14144 ft | 205 kts | 309° |
| 2026-03-24 17:13 | 39.42326 | -106.75788 | 14355 ft | 208 kts | 308° |
| 2026-03-24 17:13 | 39.43259 | -106.77211 | 14598 ft | 208 kts | 309° |
| 2026-03-24 17:13 | 39.44195 | -106.78650 | 14842 ft | 209 kts | 309° |
| 2026-03-24 17:14 | 39.45130 | -106.80094 | 15079 ft | 209 kts | 308° |
| 2026-03-24 17:14 | 39.46063 | -106.81531 | 15307 ft | 209 kts | 308° |
| 2026-03-24 17:14 | 39.46996 | -106.82971 | 15557 ft | 210 kts | 308° |
| 2026-03-24 17:14 | 39.47948 | -106.84440 | 15500 ft | 212 kts | 308° |
| 2026-03-24 17:15 | 39.48890 | -106.85890 | 15506 ft | 211 kts | 308° |
| 2026-03-24 17:15 | 39.49830 | -106.87342 | 15520 ft | 209 kts | 308° |
| 2026-03-24 17:15 | 39.50769 | -106.88794 | 15641 ft | 211 kts | 308° |
| 2026-03-24 17:15 | 39.51706 | -106.90248 | 15640 ft | 210 kts | 308° |
| 2026-03-24 17:16 | 39.52642 | -106.91695 | 15642 ft | 210 kts | 308° |
| 2026-03-24 17:16 | 39.53572 | -106.93134 | 15642 ft | 211 kts | 308° |
| 2026-03-24 17:16 | 39.54516 | -106.94599 | 15652 ft | 212 kts | 308° |
| 2026-03-24 17:16 | 39.55219 | -106.96225 | 15584 ft | 210 kts | 282° |
| 2026-03-24 17:17 | 39.55156 | -106.98135 | 15645 ft | 221 kts | 266° |
| 2026-03-24 17:17 | 39.54627 | -106.99993 | 15622 ft | 218 kts | 247° |
| 2026-03-24 17:17 | 39.53629 | -107.01517 | 15619 ft | 230 kts | 228° |
| 2026-03-24 17:17 | 39.52180 | -107.02536 | 15611 ft | 247 kts | 206° |
| 2026-03-24 17:18 | 39.50426 | -107.02745 | 15610 ft | 263 kts | 180° |
| 2026-03-24 17:18 | 39.48620 | -107.02062 | 15631 ft | 270 kts | 165° |
| 2026-03-24 17:18 | 39.46885 | -107.01198 | 15616 ft | 271 kts | 164° |
| 2026-03-24 17:18 | 39.45097 | -107.00350 | 15589 ft | 270 kts | 166° |
| 2026-03-24 17:19 | 39.43321 | -106.99599 | 15181 ft | 276 kts | 166° |
| 2026-03-24 17:19 | 39.41573 | -106.98764 | 14442 ft | 256 kts | 165° |
| 2026-03-24 17:19 | 39.39955 | -106.97947 | 13739 ft | 242 kts | 163° |
| 2026-03-24 17:19 | 39.38401 | -106.97143 | 12937 ft | 238 kts | 163° |
| 2026-03-24 17:20 | 39.36872 | -106.96375 | 12187 ft | 232 kts | 163° |
| 2026-03-24 17:20 | 39.35409 | -106.95623 | 11207 ft | 225 kts | 163° |
| 2026-03-24 17:20 | 39.34007 | -106.94894 | 10262 ft | 211 kts | 161° |
| 2026-03-24 17:20 | 39.32739 | -106.94263 | 9966 ft | 185 kts | 168° |
| 2026-03-24 17:21 | 39.31538 | -106.93920 | 9688 ft | 172 kts | 171° |
| 2026-03-24 17:21 | 39.30384 | -106.93526 | 9661 ft | 169 kts | 170° |
| 2026-03-24 17:21 | 39.29284 | -106.93065 | 9438 ft | 170 kts | 155° |
| 2026-03-24 17:21 | 39.28366 | -106.92081 | 9256 ft | 174 kts | 133° |
| 2026-03-24 17:22 | 39.27616 | -106.90761 | 9082 ft | 190 kts | 127° |
| 2026-03-24 17:22 | 39.26849 | -106.89433 | 8681 ft | 174 kts | 132° |
| 2026-03-24 17:22 | 39.25909 | -106.88576 | 8472 ft | 157 kts | 158° |
| 2026-03-24 17:22 | 39.24880 | -106.88075 | 7932 ft | 164 kts | 166° |
| 2026-03-24 17:23 | 39.23841 | -106.87611 | 7685 ft | 153 kts | 162° |
| 2026-03-24 17:23 | 39.22897 | -106.87162 | 7711 ft | 137 kts | 156° |
| 2026-03-24 17:23 | 39.22221 | -106.86839 | 7756 ft | 65 kts | 160° |
| 2026-03-24 17:23 | 39.22029 | -106.86723 | 7774 ft | 12 kts | 108° |
| 2026-03-24 17:24 | 39.22062 | -106.86649 | 7764 ft | 11 kts | 1° |
| 2026-03-24 17:24 | 39.22117 | -106.86670 | 7767 ft | 9 kts | 341° |
| 2026-03-24 17:24 | 39.22184 | -106.86703 | 7761 ft | 12 kts | 340° |
| 2026-03-24 17:24 | 39.22266 | -106.86720 | 7754 ft | 8 kts | 36° |
| 2026-03-24 17:25 | 39.22269 | -106.86667 | 7754 ft | 5 kts | 127° |
| 2026-03-24 17:25 | 39.22252 | -106.86648 | 7754 ft | 1 kts | 141° |
| 2026-03-24 17:25 | 39.22237 | -106.86637 | 7756 ft | 7 kts | 154° |
| 2026-03-24 17:25 | 39.22189 | -106.86623 | 7761 ft | 5 kts | 212° |
| 2026-03-24 17:26 | 39.22179 | -106.86649 | 7759 ft | 2 kts | 255° |
| 2026-03-24 17:26 | 39.22178 | -106.86656 | 7760 ft | 0 kts | 255° |